sensor_id;sensor_type;location;lat;lon;timestamp;P1;durP1;ratioP1;P2;durP2;ratioP2
70216;SDS011;65567;55.684;37.570;2024-01-11T00:00:57;5.03;;;2.70;;
70216;SDS011;65567;55.684;37.570;2024-01-11T00:03:24;2.63;;;1.38;;
70216;SDS011;65567;55.684;37.570;2024-01-11T00:05:50;2.83;;;1.73;;
70216;SDS011;65567;55.684;37.570;2024-01-11T00:08:16;2.88;;;1.58;;
70216;SDS011;65567;55.684;37.570;2024-01-11T00:10:42;3.35;;;2.10;;
70216;SDS011;65567;55.684;37.570;2024-01-11T00:13:11;4.18;;;1.88;;
70216;SDS011;65567;55.684;37.570;2024-01-11T00:15:37;3.97;;;1.38;;
70216;SDS011;65567;55.684;37.570;2024-01-11T00:18:03;2.33;;;1.45;;
70216;SDS011;65567;55.684;37.570;2024-01-11T00:20:30;4.85;;;1.90;;
70216;SDS011;65567;55.684;37.570;2024-01-11T00:22:56;2.80;;;1.60;;
70216;SDS011;65567;55.684;37.570;2024-01-11T00:25:21;4.30;;;2.17;;
70216;SDS011;65567;55.684;37.570;2024-01-11T00:27:48;3.70;;;2.00;;
70216;SDS011;65567;55.684;37.570;2024-01-11T00:30:14;5.82;;;2.33;;
70216;SDS011;65567;55.684;37.570;2024-01-11T00:32:43;3.85;;;1.90;;
70216;SDS011;65567;55.684;37.570;2024-01-11T00:35:09;5.05;;;2.70;;
70216;SDS011;65567;55.684;37.570;2024-01-11T00:37:35;3.30;;;1.63;;
70216;SDS011;65567;55.684;37.570;2024-01-11T00:40:01;4.03;;;2.25;;
70216;SDS011;65567;55.684;37.570;2024-01-11T00:42:27;2.70;;;1.05;;
70216;SDS011;65567;55.684;37.570;2024-01-11T00:44:53;4.63;;;1.73;;
70216;SDS011;65567;55.684;37.570;2024-01-11T00:47:19;3.17;;;1.70;;
70216;SDS011;65567;55.684;37.570;2024-01-11T00:49:44;2.63;;;1.23;;
70216;SDS011;65567;55.684;37.570;2024-01-11T00:52:10;3.67;;;1.88;;
70216;SDS011;65567;55.684;37.570;2024-01-11T00:54:39;3.33;;;1.50;;
70216;SDS011;65567;55.684;37.570;2024-01-11T00:57:05;3.13;;;1.95;;
70216;SDS011;65567;55.684;37.570;2024-01-11T00:59:31;3.92;;;1.92;;
70216;SDS011;65567;55.684;37.570;2024-01-11T01:01:57;3.33;;;1.77;;
70216;SDS011;65567;55.684;37.570;2024-01-11T01:04:23;2.50;;;1.27;;
70216;SDS011;65567;55.684;37.570;2024-01-11T01:06:49;1.35;;;0.77;;
70216;SDS011;65567;55.684;37.570;2024-01-11T01:09:15;3.17;;;1.48;;
70216;SDS011;65567;55.684;37.570;2024-01-11T01:11:41;4.55;;;1.88;;
70216;SDS011;65567;55.684;37.570;2024-01-11T01:14:07;5.72;;;2.10;;
70216;SDS011;65567;55.684;37.570;2024-01-11T01:16:33;2.72;;;0.85;;
70216;SDS011;65567;55.684;37.570;2024-01-11T01:18:59;2.67;;;1.20;;
70216;SDS011;65567;55.684;37.570;2024-01-11T01:21:26;3.28;;;1.25;;
70216;SDS011;65567;55.684;37.570;2024-01-11T01:23:53;2.65;;;1.77;;
70216;SDS011;65567;55.684;37.570;2024-01-11T01:26:19;1.95;;;0.88;;
70216;SDS011;65567;55.684;37.570;2024-01-11T01:28:45;2.38;;;1.15;;
70216;SDS011;65567;55.684;37.570;2024-01-11T01:31:12;2.30;;;1.45;;
70216;SDS011;65567;55.684;37.570;2024-01-11T01:33:39;2.22;;;1.48;;
70216;SDS011;65567;55.684;37.570;2024-01-11T01:36:08;3.33;;;2.00;;
70216;SDS011;65567;55.684;37.570;2024-01-11T01:38:37;4.75;;;1.98;;
70216;SDS011;65567;55.684;37.570;2024-01-11T01:41:03;3.60;;;1.77;;
70216;SDS011;65567;55.684;37.570;2024-01-11T01:43:29;4.60;;;2.03;;
70216;SDS011;65567;55.684;37.570;2024-01-11T01:45:55;2.70;;;1.45;;
70216;SDS011;65567;55.684;37.570;2024-01-11T01:48:22;3.15;;;1.33;;
70216;SDS011;65567;55.684;37.570;2024-01-11T01:50:48;3.20;;;1.50;;
70216;SDS011;65567;55.684;37.570;2024-01-11T01:53:21;3.25;;;1.00;;
70216;SDS011;65567;55.684;37.570;2024-01-11T01:55:48;3.25;;;1.65;;
70216;SDS011;65567;55.684;37.570;2024-01-11T01:58:15;3.20;;;1.15;;
70216;SDS011;65567;55.684;37.570;2024-01-11T02:00:43;1.77;;;1.02;;
70216;SDS011;65567;55.684;37.570;2024-01-11T02:03:14;2.00;;;0.95;;
70216;SDS011;65567;55.684;37.570;2024-01-11T02:05:41;2.30;;;1.17;;
70216;SDS011;65567;55.684;37.570;2024-01-11T02:08:08;1.95;;;0.70;;
70216;SDS011;65567;55.684;37.570;2024-01-11T02:10:40;2.20;;;1.13;;
70216;SDS011;65567;55.684;37.570;2024-01-11T02:13:07;2.47;;;1.13;;
70216;SDS011;65567;55.684;37.570;2024-01-11T02:15:34;1.83;;;1.10;;
70216;SDS011;65567;55.684;37.570;2024-01-11T02:18:00;1.65;;;0.90;;
70216;SDS011;65567;55.684;37.570;2024-01-11T02:20:26;2.83;;;1.63;;
70216;SDS011;65567;55.684;37.570;2024-01-11T02:22:53;1.98;;;1.38;;
70216;SDS011;65567;55.684;37.570;2024-01-11T02:25:23;1.98;;;0.82;;
70216;SDS011;65567;55.684;37.570;2024-01-11T02:27:49;0.93;;;0.60;;
70216;SDS011;65567;55.684;37.570;2024-01-11T02:30:16;2.38;;;1.08;;
70216;SDS011;65567;55.684;37.570;2024-01-11T02:32:47;3.30;;;1.23;;
70216;SDS011;65567;55.684;37.570;2024-01-11T02:35:17;2.22;;;1.25;;
70216;SDS011;65567;55.684;37.570;2024-01-11T02:37:44;2.97;;;1.35;;
70216;SDS011;65567;55.684;37.570;2024-01-11T02:40:13;1.80;;;1.00;;
70216;SDS011;65567;55.684;37.570;2024-01-11T02:42:40;2.40;;;1.10;;
70216;SDS011;65567;55.684;37.570;2024-01-11T02:45:06;3.45;;;1.52;;
70216;SDS011;65567;55.684;37.570;2024-01-11T02:47:33;2.63;;;1.40;;
70216;SDS011;65567;55.684;37.570;2024-01-11T02:49:59;2.10;;;1.05;;
70216;SDS011;65567;55.684;37.570;2024-01-11T02:52:25;2.35;;;0.98;;
70216;SDS011;65567;55.684;37.570;2024-01-11T02:54:52;1.60;;;0.85;;
70216;SDS011;65567;55.684;37.570;2024-01-11T02:57:21;0.88;;;0.52;;
70216;SDS011;65567;55.684;37.570;2024-01-11T02:59:46;1.25;;;0.77;;
70216;SDS011;65567;55.684;37.570;2024-01-11T03:02:12;1.63;;;0.80;;
70216;SDS011;65567;55.684;37.570;2024-01-11T03:04:38;3.22;;;0.88;;
70216;SDS011;65567;55.684;37.570;2024-01-11T03:07:04;2.40;;;1.23;;
70216;SDS011;65567;55.684;37.570;2024-01-11T03:09:30;3.95;;;1.20;;
70216;SDS011;65567;55.684;37.570;2024-01-11T03:11:56;1.83;;;1.10;;
70216;SDS011;65567;55.684;37.570;2024-01-11T03:14:22;1.40;;;0.80;;
70216;SDS011;65567;55.684;37.570;2024-01-11T03:16:48;1.83;;;0.70;;
70216;SDS011;65567;55.684;37.570;2024-01-11T03:19:17;1.60;;;0.77;;
70216;SDS011;65567;55.684;37.570;2024-01-11T03:21:43;2.08;;;0.60;;
70216;SDS011;65567;55.684;37.570;2024-01-11T03:24:12;1.60;;;0.80;;
70216;SDS011;65567;55.684;37.570;2024-01-11T03:26:39;3.25;;;0.82;;
70216;SDS011;65567;55.684;37.570;2024-01-11T03:29:05;1.45;;;0.65;;
70216;SDS011;65567;55.684;37.570;2024-01-11T03:31:32;1.13;;;0.50;;
70216;SDS011;65567;55.684;37.570;2024-01-11T03:33:57;1.48;;;0.70;;
70216;SDS011;65567;55.684;37.570;2024-01-11T03:36:24;0.80;;;0.50;;
70216;SDS011;65567;55.684;37.570;2024-01-11T03:38:53;0.90;;;0.55;;
70216;SDS011;65567;55.684;37.570;2024-01-11T03:41:20;1.02;;;0.60;;
70216;SDS011;65567;55.684;37.570;2024-01-11T03:43:47;2.22;;;0.90;;
70216;SDS011;65567;55.684;37.570;2024-01-11T03:46:15;1.80;;;0.93;;
70216;SDS011;65567;55.684;37.570;2024-01-11T03:48:41;1.90;;;0.90;;
70216;SDS011;65567;55.684;37.570;2024-01-11T03:51:08;1.65;;;0.55;;
70216;SDS011;65567;55.684;37.570;2024-01-11T03:53:35;1.30;;;0.65;;
70216;SDS011;65567;55.684;37.570;2024-01-11T03:56:02;1.05;;;0.50;;
70216;SDS011;65567;55.684;37.570;2024-01-11T03:58:28;1.73;;;0.60;;
70216;SDS011;65567;55.684;37.570;2024-01-11T04:00:55;1.25;;;0.40;;
70216;SDS011;65567;55.684;37.570;2024-01-11T04:03:21;0.73;;;0.40;;
70216;SDS011;65567;55.684;37.570;2024-01-11T04:05:47;1.05;;;0.50;;
70216;SDS011;65567;55.684;37.570;2024-01-11T04:08:13;2.53;;;0.65;;
70216;SDS011;65567;55.684;37.570;2024-01-11T04:10:39;3.13;;;1.00;;
70216;SDS011;65567;55.684;37.570;2024-01-11T04:13:06;7.90;;;2.35;;
70216;SDS011;65567;55.684;37.570;2024-01-11T04:15:33;1.38;;;0.70;;
70216;SDS011;65567;55.684;37.570;2024-01-11T04:18:02;1.95;;;0.65;;
70216;SDS011;65567;55.684;37.570;2024-01-11T04:20:28;1.60;;;0.50;;
70216;SDS011;65567;55.684;37.570;2024-01-11T04:22:54;3.92;;;0.40;;
70216;SDS011;65567;55.684;37.570;2024-01-11T04:25:20;1.30;;;0.45;;
70216;SDS011;65567;55.684;37.570;2024-01-11T04:27:47;0.98;;;0.60;;
70216;SDS011;65567;55.684;37.570;2024-01-11T04:30:13;1.13;;;0.50;;
70216;SDS011;65567;55.684;37.570;2024-01-11T04:32:39;1.85;;;0.50;;
70216;SDS011;65567;55.684;37.570;2024-01-11T04:35:06;0.95;;;0.50;;
70216;SDS011;65567;55.684;37.570;2024-01-11T04:37:32;1.02;;;0.60;;
70216;SDS011;65567;55.684;37.570;2024-01-11T04:39:59;2.65;;;0.60;;
70216;SDS011;65567;55.684;37.570;2024-01-11T04:42:27;1.35;;;0.70;;
70216;SDS011;65567;55.684;37.570;2024-01-11T04:44:53;2.95;;;0.60;;
70216;SDS011;65567;55.684;37.570;2024-01-11T04:47:22;1.85;;;0.60;;
70216;SDS011;65567;55.684;37.570;2024-01-11T04:49:48;1.90;;;0.70;;
70216;SDS011;65567;55.684;37.570;2024-01-11T04:52:13;1.83;;;0.70;;
70216;SDS011;65567;55.684;37.570;2024-01-11T04:54:39;7.75;;;1.95;;
70216;SDS011;65567;55.684;37.570;2024-01-11T04:57:05;2.35;;;0.88;;
70216;SDS011;65567;55.684;37.570;2024-01-11T04:59:31;2.22;;;0.88;;
70216;SDS011;65567;55.684;37.570;2024-01-11T05:01:57;1.70;;;0.73;;
70216;SDS011;65567;55.684;37.570;2024-01-11T05:04:23;1.48;;;0.70;;
70216;SDS011;65567;55.684;37.570;2024-01-11T05:06:50;0.95;;;0.50;;
70216;SDS011;65567;55.684;37.570;2024-01-11T05:09:17;2.95;;;1.05;;
70216;SDS011;65567;55.684;37.570;2024-01-11T05:11:42;1.13;;;0.60;;
70216;SDS011;65567;55.684;37.570;2024-01-11T05:14:08;1.30;;;0.60;;
70216;SDS011;65567;55.684;37.570;2024-01-11T05:16:34;1.80;;;0.60;;
70216;SDS011;65567;55.684;37.570;2024-01-11T05:19:04;3.47;;;1.10;;
70216;SDS011;65567;55.684;37.570;2024-01-11T05:21:30;2.88;;;1.30;;
70216;SDS011;65567;55.684;37.570;2024-01-11T05:23:56;2.33;;;0.80;;
70216;SDS011;65567;55.684;37.570;2024-01-11T05:26:22;2.55;;;1.58;;
70216;SDS011;65567;55.684;37.570;2024-01-11T05:28:48;2.15;;;0.90;;
70216;SDS011;65567;55.684;37.570;2024-01-11T05:31:17;1.70;;;0.88;;
70216;SDS011;65567;55.684;37.570;2024-01-11T05:33:47;3.42;;;1.20;;
70216;SDS011;65567;55.684;37.570;2024-01-11T05:36:13;2.63;;;1.20;;
70216;SDS011;65567;55.684;37.570;2024-01-11T05:38:39;2.35;;;0.73;;
70216;SDS011;65567;55.684;37.570;2024-01-11T05:41:05;1.58;;;0.80;;
70216;SDS011;65567;55.684;37.570;2024-01-11T05:43:31;1.50;;;0.70;;
70216;SDS011;65567;55.684;37.570;2024-01-11T05:45:57;2.58;;;0.88;;
70216;SDS011;65567;55.684;37.570;2024-01-11T05:48:23;1.98;;;0.98;;
70216;SDS011;65567;55.684;37.570;2024-01-11T05:50:49;2.05;;;0.90;;
70216;SDS011;65567;55.684;37.570;2024-01-11T05:53:15;1.58;;;0.80;;
70216;SDS011;65567;55.684;37.570;2024-01-11T05:55:45;3.90;;;0.75;;
70216;SDS011;65567;55.684;37.570;2024-01-11T05:58:12;1.50;;;0.70;;
70216;SDS011;65567;55.684;37.570;2024-01-11T06:00:38;2.22;;;0.60;;
70216;SDS011;65567;55.684;37.570;2024-01-11T06:03:03;2.78;;;0.82;;
70216;SDS011;65567;55.684;37.570;2024-01-11T06:05:30;3.67;;;0.80;;
70216;SDS011;65567;55.684;37.570;2024-01-11T06:07:55;1.33;;;0.70;;
70216;SDS011;65567;55.684;37.570;2024-01-11T06:10:22;2.20;;;0.95;;
70216;SDS011;65567;55.684;37.570;2024-01-11T06:12:50;2.90;;;1.15;;
70216;SDS011;65567;55.684;37.570;2024-01-11T06:15:16;4.25;;;1.02;;
70216;SDS011;65567;55.684;37.570;2024-01-11T06:17:42;1.48;;;0.90;;
70216;SDS011;65567;55.684;37.570;2024-01-11T06:20:08;3.70;;;1.20;;
70216;SDS011;65567;55.684;37.570;2024-01-11T06:22:35;1.15;;;0.65;;
70216;SDS011;65567;55.684;37.570;2024-01-11T06:25:01;2.40;;;0.60;;
70216;SDS011;65567;55.684;37.570;2024-01-11T06:27:27;3.55;;;0.85;;
70216;SDS011;65567;55.684;37.570;2024-01-11T06:29:53;3.22;;;0.90;;
70216;SDS011;65567;55.684;37.570;2024-01-11T06:32:19;2.60;;;0.80;;
70216;SDS011;65567;55.684;37.570;2024-01-11T06:34:45;1.88;;;0.70;;
70216;SDS011;65567;55.684;37.570;2024-01-11T06:37:12;2.78;;;0.73;;
70216;SDS011;65567;55.684;37.570;2024-01-11T06:39:38;2.22;;;0.70;;
70216;SDS011;65567;55.684;37.570;2024-01-11T06:42:04;3.05;;;0.90;;
70216;SDS011;65567;55.684;37.570;2024-01-11T06:44:30;3.35;;;0.80;;
70216;SDS011;65567;55.684;37.570;2024-01-11T06:46:56;2.03;;;0.60;;
70216;SDS011;65567;55.684;37.570;2024-01-11T06:49:22;1.92;;;0.70;;
70216;SDS011;65567;55.684;37.570;2024-01-11T06:51:48;1.58;;;0.43;;
70216;SDS011;65567;55.684;37.570;2024-01-11T06:54:14;4.82;;;2.30;;
70216;SDS011;65567;55.684;37.570;2024-01-11T06:56:39;1.70;;;0.70;;
70216;SDS011;65567;55.684;37.570;2024-01-11T06:59:06;2.28;;;0.80;;
70216;SDS011;65567;55.684;37.570;2024-01-11T07:01:32;3.83;;;1.00;;
70216;SDS011;65567;55.684;37.570;2024-01-11T07:03:58;2.80;;;0.70;;
70216;SDS011;65567;55.684;37.570;2024-01-11T07:06:24;3.33;;;0.90;;
70216;SDS011;65567;55.684;37.570;2024-01-11T07:08:50;2.13;;;1.00;;
70216;SDS011;65567;55.684;37.570;2024-01-11T07:11:15;1.02;;;0.65;;
70216;SDS011;65567;55.684;37.570;2024-01-11T07:13:41;2.30;;;0.80;;
70216;SDS011;65567;55.684;37.570;2024-01-11T07:16:08;2.35;;;0.98;;
70216;SDS011;65567;55.684;37.570;2024-01-11T07:18:35;1.33;;;0.60;;
70216;SDS011;65567;55.684;37.570;2024-01-11T07:21:01;2.95;;;0.80;;
70216;SDS011;65567;55.684;37.570;2024-01-11T07:23:27;1.73;;;0.70;;
70216;SDS011;65567;55.684;37.570;2024-01-11T07:25:53;1.65;;;0.70;;
70216;SDS011;65567;55.684;37.570;2024-01-11T07:28:19;4.45;;;1.20;;
70216;SDS011;65567;55.684;37.570;2024-01-11T07:30:51;4.90;;;1.00;;
70216;SDS011;65567;55.684;37.570;2024-01-11T07:33:18;1.63;;;0.65;;
70216;SDS011;65567;55.684;37.570;2024-01-11T07:35:45;3.58;;;0.95;;
70216;SDS011;65567;55.684;37.570;2024-01-11T07:38:11;2.60;;;0.73;;
70216;SDS011;65567;55.684;37.570;2024-01-11T07:40:37;2.22;;;0.75;;
70216;SDS011;65567;55.684;37.570;2024-01-11T07:43:06;3.08;;;0.85;;
70216;SDS011;65567;55.684;37.570;2024-01-11T07:45:32;2.85;;;0.80;;
70216;SDS011;65567;55.684;37.570;2024-01-11T07:47:58;4.95;;;0.80;;
70216;SDS011;65567;55.684;37.570;2024-01-11T07:50:23;2.97;;;0.80;;
70216;SDS011;65567;55.684;37.570;2024-01-11T07:52:49;3.60;;;0.68;;
70216;SDS011;65567;55.684;37.570;2024-01-11T07:55:16;2.95;;;0.60;;
70216;SDS011;65567;55.684;37.570;2024-01-11T07:57:41;4.15;;;1.85;;
70216;SDS011;65567;55.684;37.570;2024-01-11T08:00:10;4.47;;;0.80;;
70216;SDS011;65567;55.684;37.570;2024-01-11T08:02:36;1.15;;;0.55;;
70216;SDS011;65567;55.684;37.570;2024-01-11T08:05:04;1.80;;;0.70;;
70216;SDS011;65567;55.684;37.570;2024-01-11T08:07:31;3.38;;;0.70;;
70216;SDS011;65567;55.684;37.570;2024-01-11T08:09:57;5.25;;;0.65;;
70216;SDS011;65567;55.684;37.570;2024-01-11T08:12:22;3.22;;;0.57;;
70216;SDS011;65567;55.684;37.570;2024-01-11T08:14:48;4.25;;;0.65;;
70216;SDS011;65567;55.684;37.570;2024-01-11T08:17:14;3.35;;;0.68;;
70216;SDS011;65567;55.684;37.570;2024-01-11T08:19:40;5.63;;;0.77;;
70216;SDS011;65567;55.684;37.570;2024-01-11T08:22:09;1.98;;;0.80;;
70216;SDS011;65567;55.684;37.570;2024-01-11T08:24:36;1.85;;;0.68;;
70216;SDS011;65567;55.684;37.570;2024-01-11T08:27:03;3.40;;;0.80;;
70216;SDS011;65567;55.684;37.570;2024-01-11T08:29:29;2.80;;;0.45;;
70216;SDS011;65567;55.684;37.570;2024-01-11T08:31:55;6.65;;;0.70;;
70216;SDS011;65567;55.684;37.570;2024-01-11T08:34:21;4.53;;;0.63;;
70216;SDS011;65567;55.684;37.570;2024-01-11T08:36:47;2.53;;;0.55;;
70216;SDS011;65567;55.684;37.570;2024-01-11T08:39:13;2.20;;;1.00;;
70216;SDS011;65567;55.684;37.570;2024-01-11T08:41:41;3.88;;;0.77;;
70216;SDS011;65567;55.684;37.570;2024-01-11T08:44:08;1.42;;;0.68;;
70216;SDS011;65567;55.684;37.570;2024-01-11T08:46:33;3.40;;;0.90;;
70216;SDS011;65567;55.684;37.570;2024-01-11T08:49:00;1.90;;;0.63;;
70216;SDS011;65567;55.684;37.570;2024-01-11T08:51:31;2.65;;;0.82;;
70216;SDS011;65567;55.684;37.570;2024-01-11T08:54:00;2.78;;;0.75;;
70216;SDS011;65567;55.684;37.570;2024-01-11T08:56:25;2.80;;;0.70;;
70216;SDS011;65567;55.684;37.570;2024-01-11T08:58:51;4.00;;;0.60;;
70216;SDS011;65567;55.684;37.570;2024-01-11T09:01:17;1.85;;;0.60;;
70216;SDS011;65567;55.684;37.570;2024-01-11T09:03:43;2.47;;;0.60;;
70216;SDS011;65567;55.684;37.570;2024-01-11T09:06:09;1.55;;;0.75;;
70216;SDS011;65567;55.684;37.570;2024-01-11T09:08:38;1.33;;;0.60;;
70216;SDS011;65567;55.684;37.570;2024-01-11T09:11:06;1.80;;;0.70;;
70216;SDS011;65567;55.684;37.570;2024-01-11T09:13:32;3.33;;;1.23;;
70216;SDS011;65567;55.684;37.570;2024-01-11T09:16:00;2.95;;;0.40;;
70216;SDS011;65567;55.684;37.570;2024-01-11T09:18:26;2.15;;;0.50;;
70216;SDS011;65567;55.684;37.570;2024-01-11T09:20:52;0.98;;;0.40;;
70216;SDS011;65567;55.684;37.570;2024-01-11T09:23:18;2.03;;;0.60;;
70216;SDS011;65567;55.684;37.570;2024-01-11T09:25:44;0.52;;;0.38;;
70216;SDS011;65567;55.684;37.570;2024-01-11T09:28:10;0.60;;;0.40;;
70216;SDS011;65567;55.684;37.570;2024-01-11T09:30:35;0.93;;;0.50;;
70216;SDS011;65567;55.684;37.570;2024-01-11T09:33:01;1.13;;;0.50;;
70216;SDS011;65567;55.684;37.570;2024-01-11T09:35:27;1.08;;;0.52;;
70216;SDS011;65567;55.684;37.570;2024-01-11T09:37:53;1.63;;;0.77;;
70216;SDS011;65567;55.684;37.570;2024-01-11T09:40:19;1.45;;;0.70;;
70216;SDS011;65567;55.684;37.570;2024-01-11T09:42:45;1.15;;;0.70;;
70216;SDS011;65567;55.684;37.570;2024-01-11T09:45:15;2.90;;;0.80;;
70216;SDS011;65567;55.684;37.570;2024-01-11T09:47:42;1.25;;;0.50;;
70216;SDS011;65567;55.684;37.570;2024-01-11T09:50:15;3.13;;;0.90;;
70216;SDS011;65567;55.684;37.570;2024-01-11T09:52:45;2.10;;;0.80;;
70216;SDS011;65567;55.684;37.570;2024-01-11T09:55:15;4.13;;;0.82;;
70216;SDS011;65567;55.684;37.570;2024-01-11T09:57:46;3.13;;;0.93;;
70216;SDS011;65567;55.684;37.570;2024-01-11T10:00:13;2.65;;;1.20;;
70216;SDS011;65567;55.684;37.570;2024-01-11T10:02:43;3.72;;;1.30;;
70216;SDS011;65567;55.684;37.570;2024-01-11T10:05:09;2.60;;;1.00;;
70216;SDS011;65567;55.684;37.570;2024-01-11T10:07:36;1.63;;;0.70;;
70216;SDS011;65567;55.684;37.570;2024-01-11T10:10:03;2.22;;;0.90;;
70216;SDS011;65567;55.684;37.570;2024-01-11T10:12:29;2.67;;;0.93;;
70216;SDS011;65567;55.684;37.570;2024-01-11T10:14:55;3.55;;;1.00;;
70216;SDS011;65567;55.684;37.570;2024-01-11T10:17:31;1.40;;;0.90;;
70216;SDS011;65567;55.684;37.570;2024-01-11T10:20:00;2.72;;;1.25;;
70216;SDS011;65567;55.684;37.570;2024-01-11T10:22:35;1.92;;;1.05;;
70216;SDS011;65567;55.684;37.570;2024-01-11T10:25:08;2.55;;;1.05;;
70216;SDS011;65567;55.684;37.570;2024-01-11T10:27:38;1.73;;;0.80;;
70216;SDS011;65567;55.684;37.570;2024-01-11T10:30:07;2.07;;;1.00;;
70216;SDS011;65567;55.684;37.570;2024-01-11T10:32:33;2.63;;;0.90;;
70216;SDS011;65567;55.684;37.570;2024-01-11T10:35:02;2.22;;;0.95;;
70216;SDS011;65567;55.684;37.570;2024-01-11T10:37:30;1.88;;;1.10;;
70216;SDS011;65567;55.684;37.570;2024-01-11T10:39:58;2.65;;;1.10;;
70216;SDS011;65567;55.684;37.570;2024-01-11T10:42:34;2.05;;;1.02;;
70216;SDS011;65567;55.684;37.570;2024-01-11T10:45:02;2.15;;;0.80;;
70216;SDS011;65567;55.684;37.570;2024-01-11T10:47:31;4.13;;;1.23;;
70216;SDS011;65567;55.684;37.570;2024-01-11T10:50:00;2.63;;;1.00;;
70216;SDS011;65567;55.684;37.570;2024-01-11T10:52:28;4.55;;;0.88;;
70216;SDS011;65567;55.684;37.570;2024-01-11T10:55:01;2.83;;;0.98;;
70216;SDS011;65567;55.684;37.570;2024-01-11T10:57:27;1.55;;;0.80;;
70216;SDS011;65567;55.684;37.570;2024-01-11T10:59:55;3.67;;;1.60;;
70216;SDS011;65567;55.684;37.570;2024-01-11T11:02:22;3.53;;;1.10;;
70216;SDS011;65567;55.684;37.570;2024-01-11T11:04:48;3.00;;;0.93;;
70216;SDS011;65567;55.684;37.570;2024-01-11T11:07:18;0.70;;;0.43;;
70216;SDS011;65567;55.684;37.570;2024-01-11T11:09:45;2.25;;;1.00;;
70216;SDS011;65567;55.684;37.570;2024-01-11T11:12:14;1.73;;;0.80;;
70216;SDS011;65567;55.684;37.570;2024-01-11T11:14:44;1.48;;;0.65;;
70216;SDS011;65567;55.684;37.570;2024-01-11T11:19:40;3.33;;;1.30;;
70216;SDS011;65567;55.684;37.570;2024-01-11T11:22:09;2.42;;;0.90;;
70216;SDS011;65567;55.684;37.570;2024-01-11T11:24:38;2.92;;;1.00;;
70216;SDS011;65567;55.684;37.570;2024-01-11T11:27:05;3.88;;;1.35;;
70216;SDS011;65567;55.684;37.570;2024-01-11T11:29:30;5.28;;;0.85;;
70216;SDS011;65567;55.684;37.570;2024-01-11T11:31:56;3.47;;;0.82;;
70216;SDS011;65567;55.684;37.570;2024-01-11T11:34:41;2.75;;;0.90;;
70216;SDS011;65567;55.684;37.570;2024-01-11T11:37:09;2.47;;;0.60;;
70216;SDS011;65567;55.684;37.570;2024-01-11T11:39:35;2.28;;;0.80;;
70216;SDS011;65567;55.684;37.570;2024-01-11T11:42:01;3.25;;;1.20;;
70216;SDS011;65567;55.684;37.570;2024-01-11T11:44:28;7.30;;;1.05;;
70216;SDS011;65567;55.684;37.570;2024-01-11T11:46:54;1.15;;;0.55;;
70216;SDS011;65567;55.684;37.570;2024-01-11T11:52:39;1.90;;;0.80;;
70216;SDS011;65567;55.684;37.570;2024-01-11T11:55:08;2.42;;;1.08;;
70216;SDS011;65567;55.684;37.570;2024-01-11T11:57:34;2.47;;;1.20;;
70216;SDS011;65567;55.684;37.570;2024-01-11T12:00:01;1.77;;;0.93;;
70216;SDS011;65567;55.684;37.570;2024-01-11T12:02:32;3.70;;;0.88;;
70216;SDS011;65567;55.684;37.570;2024-01-11T12:05:01;4.93;;;0.73;;
70216;SDS011;65567;55.684;37.570;2024-01-11T12:07:29;3.22;;;1.10;;
70216;SDS011;65567;55.684;37.570;2024-01-11T12:09:56;1.95;;;0.65;;
70216;SDS011;65567;55.684;37.570;2024-01-11T12:12:22;2.55;;;0.90;;
70216;SDS011;65567;55.684;37.570;2024-01-11T12:14:48;2.97;;;1.00;;
70216;SDS011;65567;55.684;37.570;2024-01-11T12:17:14;1.73;;;0.82;;
70216;SDS011;65567;55.684;37.570;2024-01-11T12:19:40;2.85;;;0.93;;
70216;SDS011;65567;55.684;37.570;2024-01-11T12:22:07;2.78;;;1.10;;
70216;SDS011;65567;55.684;37.570;2024-01-11T12:24:33;3.28;;;1.13;;
70216;SDS011;65567;55.684;37.570;2024-01-11T12:26:59;2.22;;;1.00;;
70216;SDS011;65567;55.684;37.570;2024-01-11T12:29:29;4.05;;;1.27;;
70216;SDS011;65567;55.684;37.570;2024-01-11T12:31:59;4.43;;;1.20;;
70216;SDS011;65567;55.684;37.570;2024-01-11T12:34:28;2.88;;;1.30;;
70216;SDS011;65567;55.684;37.570;2024-01-11T12:36:54;2.78;;;1.58;;
70216;SDS011;65567;55.684;37.570;2024-01-11T12:39:20;3.15;;;1.95;;
70216;SDS011;65567;55.684;37.570;2024-01-11T12:41:50;2.80;;;1.20;;
70216;SDS011;65567;55.684;37.570;2024-01-11T12:44:17;4.93;;;0.70;;
70216;SDS011;65567;55.684;37.570;2024-01-11T12:46:44;2.05;;;0.95;;
70216;SDS011;65567;55.684;37.570;2024-01-11T12:49:12;2.40;;;1.40;;
70216;SDS011;65567;55.684;37.570;2024-01-11T12:51:38;2.40;;;1.08;;
70216;SDS011;65567;55.684;37.570;2024-01-11T12:54:05;1.95;;;0.82;;
70216;SDS011;65567;55.684;37.570;2024-01-11T12:56:41;7.53;;;1.83;;
70216;SDS011;65567;55.684;37.570;2024-01-11T12:59:10;3.83;;;1.15;;
70216;SDS011;65567;55.684;37.570;2024-01-11T13:01:37;4.43;;;1.23;;
70216;SDS011;65567;55.684;37.570;2024-01-11T13:04:04;3.17;;;1.20;;
70216;SDS011;65567;55.684;37.570;2024-01-11T13:06:30;2.22;;;1.15;;
70216;SDS011;65567;55.684;37.570;2024-01-11T13:08:57;1.98;;;1.15;;
70216;SDS011;65567;55.684;37.570;2024-01-11T13:11:23;2.17;;;1.15;;
70216;SDS011;65567;55.684;37.570;2024-01-11T13:13:53;4.05;;;1.08;;
70216;SDS011;65567;55.684;37.570;2024-01-11T13:16:18;1.95;;;1.00;;
70216;SDS011;65567;55.684;37.570;2024-01-11T13:18:45;3.88;;;1.10;;
70216;SDS011;65567;55.684;37.570;2024-01-11T13:21:11;2.88;;;1.17;;
70216;SDS011;65567;55.684;37.570;2024-01-11T13:23:38;2.15;;;0.70;;
70216;SDS011;65567;55.684;37.570;2024-01-11T13:26:05;3.08;;;1.02;;
70216;SDS011;65567;55.684;37.570;2024-01-11T13:28:31;3.88;;;1.40;;
70216;SDS011;65567;55.684;37.570;2024-01-11T13:30:58;2.65;;;1.42;;
70216;SDS011;65567;55.684;37.570;2024-01-11T13:33:25;4.20;;;1.50;;
70216;SDS011;65567;55.684;37.570;2024-01-11T13:35:51;1.30;;;0.75;;
70216;SDS011;65567;55.684;37.570;2024-01-11T13:38:17;2.70;;;1.33;;
70216;SDS011;65567;55.684;37.570;2024-01-11T13:40:43;2.33;;;1.30;;
70216;SDS011;65567;55.684;37.570;2024-01-11T13:43:09;3.40;;;1.60;;
70216;SDS011;65567;55.684;37.570;2024-01-11T13:45:35;3.20;;;1.55;;
70216;SDS011;65567;55.684;37.570;2024-01-11T13:48:02;3.78;;;1.65;;
70216;SDS011;65567;55.684;37.570;2024-01-11T13:50:29;1.67;;;1.17;;
70216;SDS011;65567;55.684;37.570;2024-01-11T13:52:54;2.08;;;1.10;;
70216;SDS011;65567;55.684;37.570;2024-01-11T13:55:20;2.70;;;1.20;;
70216;SDS011;65567;55.684;37.570;2024-01-11T13:57:46;3.22;;;1.67;;
70216;SDS011;65567;55.684;37.570;2024-01-11T14:00:13;2.20;;;1.27;;
70216;SDS011;65567;55.684;37.570;2024-01-11T14:02:40;3.05;;;1.45;;
70216;SDS011;65567;55.684;37.570;2024-01-11T14:05:10;4.57;;;1.52;;
70216;SDS011;65567;55.684;37.570;2024-01-11T14:07:38;2.85;;;1.50;;
70216;SDS011;65567;55.684;37.570;2024-01-11T14:10:05;4.10;;;1.58;;
70216;SDS011;65567;55.684;37.570;2024-01-11T14:12:32;3.85;;;1.45;;
70216;SDS011;65567;55.684;37.570;2024-01-11T14:14:58;1.95;;;1.27;;
70216;SDS011;65567;55.684;37.570;2024-01-11T14:17:29;5.32;;;1.60;;
70216;SDS011;65567;55.684;37.570;2024-01-11T14:19:55;3.60;;;1.48;;
70216;SDS011;65567;55.684;37.570;2024-01-11T14:22:21;4.68;;;1.73;;
70216;SDS011;65567;55.684;37.570;2024-01-11T14:24:47;4.15;;;1.35;;
70216;SDS011;65567;55.684;37.570;2024-01-11T14:27:13;2.60;;;1.63;;
70216;SDS011;65567;55.684;37.570;2024-01-11T14:29:39;3.15;;;1.70;;
70216;SDS011;65567;55.684;37.570;2024-01-11T14:32:08;2.90;;;1.30;;
70216;SDS011;65567;55.684;37.570;2024-01-11T14:34:36;3.00;;;1.30;;
70216;SDS011;65567;55.684;37.570;2024-01-11T14:37:01;3.40;;;1.45;;